VRMM/MLE METAR and TAF weather

Enter ICAO airport designator
Station Type Date Time Source
VRMM METAR 2020/12/05 05:00 UTC NOAA

VRMM 050500Z 29012KT 9000 FEW018 BKN270 30/25 Q1010 NOSIG


Station Type Date Time Source
VRMM Decoded METAR 2020/12/05 05:00 UTC NOAA

Male, Maldives (VRMM) 04-12N 073-32E 2M
Dec 05, 2020 - 12:00 AM EST / 2020.12.05 0500 UTC
Wind: from the WNW (290 degrees) at 14 MPH (12 KT):0
Visibility: 5 mile(s):0
Sky conditions: mostly cloudy
Temperature: 86 F (30 C)
Heat index: 96.8 F (36.0 C):1
Dew Point: 77 F (25 C)
Relative Humidity: 74%
Pressure (altimeter): 29.83 in. Hg (1010 hPa)
ob: VRMM 050500Z 29012KT 9000 FEW018 BKN270 30/25 Q1010 NOSIG
cycle: 5

Station Type Date Time Source
VRMM TAF 2020/12/05 06:19 UTC NOAA

TAF VRMM 050500Z 0506/0512 29015KT 9000 FEW018TCU
TEMPO 0508/0514 29018G33KT 5000 -TSRA FEW017CB

Example: see airport list